sensor_id;sensor_type;location;lat;lon;timestamp;pressure;altitude;pressure_sealevel;temperature;humidity
70445;BME280;57902;49.638;11.070;2023-05-03T00:01:36;99135.66;;;6.87;100.00
70445;BME280;57902;49.638;11.070;2023-05-03T00:04:02;99123.69;;;6.78;100.00
70445;BME280;57902;49.638;11.070;2023-05-03T00:06:29;99121.16;;;6.70;100.00
70445;BME280;57902;49.638;11.070;2023-05-03T00:08:56;99131.41;;;6.67;100.00
70445;BME280;57902;49.638;11.070;2023-05-03T00:11:23;99132.25;;;6.66;100.00
70445;BME280;57902;49.638;11.070;2023-05-03T00:13:50;99134.81;;;6.57;100.00
70445;BME280;57902;49.638;11.070;2023-05-03T00:16:17;99131.38;;;6.50;100.00
70445;BME280;57902;49.638;11.070;2023-05-03T00:18:44;99127.97;;;6.46;100.00
70445;BME280;57902;49.638;11.070;2023-05-03T00:21:13;99129.69;;;6.47;100.00
70445;BME280;57902;49.638;11.070;2023-05-03T00:23:39;99129.66;;;6.35;100.00
70445;BME280;57902;49.638;11.070;2023-05-03T00:26:06;99130.50;;;6.31;100.00
70445;BME280;57902;49.638;11.070;2023-05-03T00:28:33;99127.97;;;6.28;100.00
70445;BME280;57902;49.638;11.070;2023-05-03T00:31:07;99125.41;;;6.28;100.00
70445;BME280;57902;49.638;11.070;2023-05-03T00:33:36;99127.94;;;6.22;100.00
70445;BME280;57902;49.638;11.070;2023-05-03T00:36:07;99129.66;;;6.20;100.00
70445;BME280;57902;49.638;11.070;2023-05-03T00:38:34;99125.38;;;6.23;100.00
70445;BME280;57902;49.638;11.070;2023-05-03T00:41:01;99134.78;;;6.24;100.00
70445;BME280;57902;49.638;11.070;2023-05-03T00:43:28;99136.47;;;6.18;100.00
70445;BME280;57902;49.638;11.070;2023-05-03T00:45:55;99134.75;;;6.12;100.00
70445;BME280;57902;49.638;11.070;2023-05-03T00:48:40;99137.28;;;6.01;100.00
70445;BME280;57902;49.638;11.070;2023-05-03T00:51:07;99132.97;;;5.91;100.00
70445;BME280;57902;49.638;11.070;2023-05-03T00:53:34;99136.34;;;5.85;100.00
70445;BME280;57902;49.638;11.070;2023-05-03T00:56:02;99136.34;;;5.77;100.00
70445;BME280;57902;49.638;11.070;2023-05-03T00:58:31;99141.44;;;5.71;100.00
70445;BME280;57902;49.638;11.070;2023-05-03T01:00:58;99138.84;;;5.67;100.00
70445;BME280;57902;49.638;11.070;2023-05-03T01:03:25;99137.97;;;5.61;100.00
70445;BME280;57902;49.638;11.070;2023-05-03T01:06:09;99136.25;;;5.57;100.00
70445;BME280;57902;49.638;11.070;2023-05-03T01:08:52;99138.81;;;5.54;100.00
70445;BME280;57902;49.638;11.070;2023-05-03T01:11:26;99136.25;;;5.53;100.00
70445;BME280;57902;49.638;11.070;2023-05-03T01:13:56;99135.41;;;5.51;100.00
70445;BME280;57902;49.638;11.070;2023-05-03T01:18:59;99131.97;;;5.55;100.00
70445;BME280;57902;49.638;11.070;2023-05-03T01:21:31;99126.03;;;5.56;100.00
70445;BME280;57902;49.638;11.070;2023-05-03T01:24:17;99126.84;;;5.53;100.00
70445;BME280;57902;49.638;11.070;2023-05-03T01:26:44;99120.06;;;5.54;100.00
70445;BME280;57902;49.638;11.070;2023-05-03T01:29:11;99124.31;;;5.55;100.00
70445;BME280;57902;49.638;11.070;2023-05-03T01:31:51;99119.19;;;5.50;100.00
70445;BME280;57902;49.638;11.070;2023-05-03T01:34:41;99121.72;;;5.46;100.00
70445;BME280;57902;49.638;11.070;2023-05-03T01:37:12;99121.69;;;5.41;100.00
70445;BME280;57902;49.638;11.070;2023-05-03T01:40:01;99119.13;;;5.36;100.00
70445;BME280;57902;49.638;11.070;2023-05-03T01:42:42;99117.38;;;5.26;100.00
70445;BME280;57902;49.638;11.070;2023-05-03T01:45:09;99123.34;;;5.28;100.00
70445;BME280;57902;49.638;11.070;2023-05-03T01:47:36;99113.06;;;5.17;100.00
70445;BME280;57902;49.638;11.070;2023-05-03T01:50:02;99116.44;;;5.16;100.00
70445;BME280;57902;49.638;11.070;2023-05-03T01:52:29;99119.84;;;5.17;100.00
70445;BME280;57902;49.638;11.070;2023-05-03T01:54:56;99119.00;;;5.13;100.00
70445;BME280;57902;49.638;11.070;2023-05-03T01:57:22;99124.09;;;5.10;100.00
70445;BME280;57902;49.638;11.070;2023-05-03T01:59:49;99118.13;;;5.08;100.00
70445;BME280;57902;49.638;11.070;2023-05-03T02:02:15;99121.44;;;4.96;100.00
70445;BME280;57902;49.638;11.070;2023-05-03T02:04:42;99117.19;;;4.95;100.00
70445;BME280;57902;49.638;11.070;2023-05-03T02:07:08;99122.28;;;4.90;100.00
70445;BME280;57902;49.638;11.070;2023-05-03T02:09:35;99119.72;;;4.92;100.00
70445;BME280;57902;49.638;11.070;2023-05-03T02:12:01;99123.94;;;4.88;100.00
70445;BME280;57902;49.638;11.070;2023-05-03T02:14:30;99123.06;;;4.82;100.00
70445;BME280;57902;49.638;11.070;2023-05-03T02:16:58;99123.06;;;4.82;100.00
70445;BME280;57902;49.638;11.070;2023-05-03T02:19:44;99117.91;;;4.77;100.00
70445;BME280;57902;49.638;11.070;2023-05-03T02:22:10;99113.66;;;4.78;100.00
70445;BME280;57902;49.638;11.070;2023-05-03T02:24:37;99115.31;;;4.72;100.00
70445;BME280;57902;49.638;11.070;2023-05-03T02:27:05;99115.31;;;4.71;100.00
70445;BME280;57902;49.638;11.070;2023-05-03T02:29:32;99114.44;;;4.67;100.00
70445;BME280;57902;49.638;11.070;2023-05-03T02:31:58;99120.38;;;4.63;100.00
70445;BME280;57902;49.638;11.070;2023-05-03T02:34:26;99117.81;;;4.63;100.00
70445;BME280;57902;49.638;11.070;2023-05-03T02:36:53;99116.06;;;4.61;100.00
70445;BME280;57902;49.638;11.070;2023-05-03T02:39:19;99133.97;;;4.62;100.00
70445;BME280;57902;49.638;11.070;2023-05-03T02:41:46;99132.22;;;4.56;100.00
70445;BME280;57902;49.638;11.070;2023-05-03T02:44:13;99124.53;;;4.52;100.00
70445;BME280;57902;49.638;11.070;2023-05-03T02:46:39;99122.84;;;4.51;100.00
70445;BME280;57902;49.638;11.070;2023-05-03T02:49:08;99125.41;;;4.52;100.00
70445;BME280;57902;49.638;11.070;2023-05-03T02:51:37;99121.94;;;4.50;100.00
70445;BME280;57902;49.638;11.070;2023-05-03T02:54:04;99121.97;;;4.52;100.00
70445;BME280;57902;49.638;11.070;2023-05-03T02:56:30;99122.88;;;4.57;100.00
70445;BME280;57902;49.638;11.070;2023-05-03T02:58:58;99116.03;;;4.53;100.00
70445;BME280;57902;49.638;11.070;2023-05-03T03:01:25;99110.91;;;4.50;100.00
70445;BME280;57902;49.638;11.070;2023-05-03T03:03:52;99115.97;;;4.45;100.00
70445;BME280;57902;49.638;11.070;2023-05-03T03:06:19;99125.28;;;4.40;100.00
70445;BME280;57902;49.638;11.070;2023-05-03T03:08:46;99123.53;;;4.36;100.00
70445;BME280;57902;49.638;11.070;2023-05-03T03:11:12;99119.31;;;4.36;100.00
70445;BME280;57902;49.638;11.070;2023-05-03T03:13:39;99131.16;;;4.31;100.00
70445;BME280;57902;49.638;11.070;2023-05-03T03:16:06;99126.03;;;4.31;100.00
70445;BME280;57902;49.638;11.070;2023-05-03T03:18:34;99118.34;;;4.25;100.00
70445;BME280;57902;49.638;11.070;2023-05-03T03:21:01;99116.59;;;4.21;100.00
70445;BME280;57902;49.638;11.070;2023-05-03T03:23:30;99121.69;;;4.19;100.00
70445;BME280;57902;49.638;11.070;2023-05-03T03:25:57;99121.69;;;4.21;100.00
70445;BME280;57902;49.638;11.070;2023-05-03T03:28:23;99121.69;;;4.21;100.00
70445;BME280;57902;49.638;11.070;2023-05-03T03:30:50;99129.34;;;4.21;100.00
70445;BME280;57902;49.638;11.070;2023-05-03T03:33:16;99127.72;;;4.26;100.00
70445;BME280;57902;49.638;11.070;2023-05-03T03:35:44;99131.06;;;4.20;100.00
70445;BME280;57902;49.638;11.070;2023-05-03T03:38:11;99131.06;;;4.20;100.00
70445;BME280;57902;49.638;11.070;2023-05-03T03:40:37;99134.44;;;4.21;100.00
70445;BME280;57902;49.638;11.070;2023-05-03T03:43:04;99131.09;;;4.24;100.00
70445;BME280;57902;49.638;11.070;2023-05-03T03:45:30;99137.91;;;4.25;100.00
70445;BME280;57902;49.638;11.070;2023-05-03T03:47:56;99137.91;;;4.25;100.00
70445;BME280;57902;49.638;11.070;2023-05-03T03:50:24;99138.75;;;4.24;100.00
70445;BME280;57902;49.638;11.070;2023-05-03T03:52:51;99138.72;;;4.22;100.00
70445;BME280;57902;49.638;11.070;2023-05-03T03:55:17;99160.84;;;4.20;100.00
70445;BME280;57902;49.638;11.070;2023-05-03T03:57:44;99165.06;;;4.18;100.00
70445;BME280;57902;49.638;11.070;2023-05-03T04:00:11;99161.59;;;4.13;100.00
70445;BME280;57902;49.638;11.070;2023-05-03T04:02:37;99163.31;;;4.15;100.00
70445;BME280;57902;49.638;11.070;2023-05-03T04:05:04;99161.63;;;4.16;100.00
70445;BME280;57902;49.638;11.070;2023-05-03T04:07:33;99171.03;;;4.18;100.00
70445;BME280;57902;49.638;11.070;2023-05-03T04:09:59;99165.94;;;4.18;100.00
70445;BME280;57902;49.638;11.070;2023-05-03T04:12:26;99171.91;;;4.22;100.00
70445;BME280;57902;49.638;11.070;2023-05-03T04:14:53;99175.44;;;4.33;100.00
70445;BME280;57902;49.638;11.070;2023-05-03T04:17:20;99162.69;;;4.36;100.00
70445;BME280;57902;49.638;11.070;2023-05-03T04:19:46;99167.81;;;4.40;100.00
70445;BME280;57902;49.638;11.070;2023-05-03T04:22:13;99172.31;;;4.67;100.00
70445;BME280;57902;49.638;11.070;2023-05-03T04:24:39;99179.38;;;5.00;100.00
70445;BME280;57902;49.638;11.070;2023-05-03T04:27:07;99195.88;;;5.49;100.00
70445;BME280;57902;49.638;11.070;2023-05-03T04:29:34;99192.75;;;5.99;100.00
70445;BME280;57902;49.638;11.070;2023-05-03T04:32:00;99197.09;;;6.36;100.00
70445;BME280;57902;49.638;11.070;2023-05-03T04:34:27;99196.31;;;6.78;93.97
70445;BME280;57902;49.638;11.070;2023-05-03T04:36:56;99209.13;;;7.15;93.39
70445;BME280;57902;49.638;11.070;2023-05-03T04:39:23;99215.91;;;7.50;91.29
70445;BME280;57902;49.638;11.070;2023-05-03T04:41:49;99218.31;;;8.00;89.07
70445;BME280;57902;49.638;11.070;2023-05-03T04:44:16;99220.72;;;8.40;85.23
70445;BME280;57902;49.638;11.070;2023-05-03T04:46:42;99213.72;;;8.67;86.99
70445;BME280;57902;49.638;11.070;2023-05-03T04:49:09;99215.03;;;9.16;83.81
70445;BME280;57902;49.638;11.070;2023-05-03T04:51:36;99215.56;;;9.50;81.80
70445;BME280;57902;49.638;11.070;2023-05-03T04:54:02;99213.19;;;9.32;82.67
70445;BME280;57902;49.638;11.070;2023-05-03T04:56:28;99224.53;;;9.09;81.33
70445;BME280;57902;49.638;11.070;2023-05-03T04:58:55;99226.44;;;8.85;84.26
70445;BME280;57902;49.638;11.070;2023-05-03T05:01:22;99228.06;;;8.92;83.60
70445;BME280;57902;49.638;11.070;2023-05-03T05:03:51;99226.66;;;8.48;86.31
70445;BME280;57902;49.638;11.070;2023-05-03T05:06:19;99232.69;;;8.39;88.51
70445;BME280;57902;49.638;11.070;2023-05-03T05:08:45;99230.31;;;7.98;90.60
70445;BME280;57902;49.638;11.070;2023-05-03T05:11:12;99233.75;;;7.91;91.44
70445;BME280;57902;49.638;11.070;2023-05-03T05:13:39;99231.22;;;7.75;92.49
70445;BME280;57902;49.638;11.070;2023-05-03T05:16:06;99226.13;;;7.77;94.58
70445;BME280;57902;49.638;11.070;2023-05-03T05:18:36;99227.78;;;7.81;95.39
70445;BME280;57902;49.638;11.070;2023-05-03T05:21:02;99234.56;;;8.03;92.15
70445;BME280;57902;49.638;11.070;2023-05-03T05:23:29;99236.28;;;8.00;94.00
70445;BME280;57902;49.638;11.070;2023-05-03T05:25:55;99241.41;;;8.08;93.02
70445;BME280;57902;49.638;11.070;2023-05-03T05:28:26;99242.31;;;7.99;93.81
70445;BME280;57902;49.638;11.070;2023-05-03T05:30:53;99239.72;;;7.94;94.63
70445;BME280;57902;49.638;11.070;2023-05-03T05:33:19;99242.31;;;7.93;95.75
70445;BME280;57902;49.638;11.070;2023-05-03T05:35:46;99245.75;;;7.92;97.93
70445;BME280;57902;49.638;11.070;2023-05-03T05:38:15;99241.41;;;8.00;96.20
70445;BME280;57902;49.638;11.070;2023-05-03T05:40:43;99242.25;;;8.11;94.94
70445;BME280;57902;49.638;11.070;2023-05-03T05:43:09;99244.84;;;8.06;94.77
70445;BME280;57902;49.638;11.070;2023-05-03T05:45:37;99247.38;;;8.10;93.95
70445;BME280;57902;49.638;11.070;2023-05-03T05:48:03;99244.81;;;8.10;94.35
70445;BME280;57902;49.638;11.070;2023-05-03T05:50:30;99248.25;;;8.02;95.71
70445;BME280;57902;49.638;11.070;2023-05-03T05:52:56;99249.13;;;8.06;96.04
70445;BME280;57902;49.638;11.070;2023-05-03T05:55:23;99244.78;;;8.14;95.44
70445;BME280;57902;49.638;11.070;2023-05-03T05:57:50;99253.34;;;8.13;95.82
70445;BME280;57902;49.638;11.070;2023-05-03T06:00:16;99254.22;;;8.15;98.04
70445;BME280;57902;49.638;11.070;2023-05-03T06:02:44;99251.66;;;8.14;94.26
70445;BME280;57902;49.638;11.070;2023-05-03T06:05:11;99255.94;;;8.16;92.79
70445;BME280;57902;49.638;11.070;2023-05-03T06:07:37;99255.94;;;8.18;89.99
70445;BME280;57902;49.638;11.070;2023-05-03T06:10:04;99255.03;;;8.22;91.11
70445;BME280;57902;49.638;11.070;2023-05-03T06:12:31;99254.97;;;8.39;90.34
70445;BME280;57902;49.638;11.070;2023-05-03T06:14:58;99255.00;;;8.34;88.19
70445;BME280;57902;49.638;11.070;2023-05-03T06:17:28;99248.13;;;8.46;86.60
70445;BME280;57902;49.638;11.070;2023-05-03T06:19:56;99250.66;;;8.44;85.63
70445;BME280;57902;49.638;11.070;2023-05-03T06:22:26;99248.09;;;8.47;87.04
70445;BME280;57902;49.638;11.070;2023-05-03T06:24:57;99251.47;;;8.54;85.17
70445;BME280;57902;49.638;11.070;2023-05-03T06:27:27;99250.50;;;8.72;82.92
70445;BME280;57902;49.638;11.070;2023-05-03T06:30:07;99247.13;;;8.67;84.37
70445;BME280;57902;49.638;11.070;2023-05-03T06:32:34;99240.19;;;8.81;83.14
70445;BME280;57902;49.638;11.070;2023-05-03T06:35:01;99238.44;;;8.83;82.99
70445;BME280;57902;49.638;11.070;2023-05-03T06:37:29;99239.28;;;8.84;82.25
70445;BME280;57902;49.638;11.070;2023-05-03T06:39:56;99252.16;;;8.87;82.70
70445;BME280;57902;49.638;11.070;2023-05-03T06:42:27;99252.19;;;8.76;83.11
70445;BME280;57902;49.638;11.070;2023-05-03T06:44:54;99245.88;;;9.19;81.80
70445;BME280;57902;49.638;11.070;2023-05-03T06:47:21;99249.22;;;9.28;79.96
70445;BME280;57902;49.638;11.070;2023-05-03T06:49:47;99252.41;;;9.54;76.60
70445;BME280;57902;49.638;11.070;2023-05-03T06:52:14;99256.47;;;9.78;78.18
70445;BME280;57902;49.638;11.070;2023-05-03T06:54:42;99254.13;;;9.55;78.29
70445;BME280;57902;49.638;11.070;2023-05-03T06:57:08;99250.75;;;9.48;79.31
70445;BME280;57902;49.638;11.070;2023-05-03T06:59:35;99242.72;;;9.79;78.27
70445;BME280;57902;49.638;11.070;2023-05-03T07:02:02;99245.13;;;9.96;74.58
70445;BME280;57902;49.638;11.070;2023-05-03T07:04:28;99245.69;;;10.18;74.33
70445;BME280;57902;49.638;11.070;2023-05-03T07:06:55;99242.31;;;10.13;73.71
70445;BME280;57902;49.638;11.070;2023-05-03T07:09:22;99237.78;;;10.37;72.57
70445;BME280;57902;49.638;11.070;2023-05-03T07:12:08;99238.47;;;10.48;72.47
70445;BME280;57902;49.638;11.070;2023-05-03T07:14:34;99239.13;;;10.62;72.17
70445;BME280;57902;49.638;11.070;2023-05-03T07:17:01;99232.22;;;10.66;70.71
70445;BME280;57902;49.638;11.070;2023-05-03T07:19:30;99236.06;;;10.95;69.68
70445;BME280;57902;49.638;11.070;2023-05-03T07:21:58;99225.97;;;11.32;69.30
70445;BME280;57902;49.638;11.070;2023-05-03T07:24:25;99229.22;;;11.42;67.08
70445;BME280;57902;49.638;11.070;2023-05-03T07:26:52;99223.03;;;11.54;68.41
70445;BME280;57902;49.638;11.070;2023-05-03T07:29:18;99226.03;;;11.78;66.71
70445;BME280;57902;49.638;11.070;2023-05-03T07:31:45;99224.66;;;12.03;65.80
70445;BME280;57902;49.638;11.070;2023-05-03T07:34:12;99222.16;;;12.00;65.61
70445;BME280;57902;49.638;11.070;2023-05-03T07:36:38;99219.81;;;12.29;64.67
70445;BME280;57902;49.638;11.070;2023-05-03T07:39:05;99217.75;;;12.45;64.39
70445;BME280;57902;49.638;11.070;2023-05-03T07:41:32;99220.53;;;12.37;63.39
70445;BME280;57902;49.638;11.070;2023-05-03T07:43:59;99213.94;;;12.61;62.30
70445;BME280;57902;49.638;11.070;2023-05-03T07:46:26;99217.91;;;12.38;62.61
70445;BME280;57902;49.638;11.070;2023-05-03T07:48:52;99208.50;;;12.34;63.74
70445;BME280;57902;49.638;11.070;2023-05-03T07:51:19;99201.75;;;12.66;63.37
70445;BME280;57902;49.638;11.070;2023-05-03T07:53:46;99203.53;;;12.64;62.06
70445;BME280;57902;49.638;11.070;2023-05-03T07:56:12;99204.56;;;12.93;62.39
70445;BME280;57902;49.638;11.070;2023-05-03T07:58:39;99204.09;;;13.13;62.09
70445;BME280;57902;49.638;11.070;2023-05-03T08:01:08;99203.44;;;13.39;59.45
70445;BME280;57902;49.638;11.070;2023-05-03T08:03:35;99204.66;;;13.24;59.67
70445;BME280;57902;49.638;11.070;2023-05-03T08:06:02;99207.44;;;13.82;58.63
70445;BME280;57902;49.638;11.070;2023-05-03T08:08:28;99203.84;;;14.18;57.57
70445;BME280;57902;49.638;11.070;2023-05-03T08:10:56;99194.75;;;14.03;58.05
70445;BME280;57902;49.638;11.070;2023-05-03T08:13:23;99197.28;;;14.36;56.68
70445;BME280;57902;49.638;11.070;2023-05-03T08:15:49;99196.25;;;14.97;55.45
70445;BME280;57902;49.638;11.070;2023-05-03T08:18:19;99199.06;;;15.16;54.79
70445;BME280;57902;49.638;11.070;2023-05-03T08:20:49;99203.13;;;15.25;52.60
70445;BME280;57902;49.638;11.070;2023-05-03T08:23:15;99203.06;;;15.51;51.32
70445;BME280;57902;49.638;11.070;2023-05-03T08:25:43;99201.31;;;16.01;52.13
70445;BME280;57902;49.638;11.070;2023-05-03T08:28:10;99193.47;;;15.53;51.82
70445;BME280;57902;49.638;11.070;2023-05-03T08:30:37;99203.03;;;15.77;50.42
70445;BME280;57902;49.638;11.070;2023-05-03T08:33:12;99198.97;;;15.44;53.87
70445;BME280;57902;49.638;11.070;2023-05-03T08:35:39;99199.97;;;16.14;52.13
70445;BME280;57902;49.638;11.070;2023-05-03T08:38:06;99206.72;;;16.42;50.80
70445;BME280;57902;49.638;11.070;2023-05-03T08:40:32;99197.44;;;16.35;49.58
70445;BME280;57902;49.638;11.070;2023-05-03T08:43:09;99203.97;;;16.23;51.68
70445;BME280;57902;49.638;11.070;2023-05-03T08:45:35;99200.53;;;16.22;51.45
70445;BME280;57902;49.638;11.070;2023-05-03T08:48:02;99200.41;;;16.25;51.31
70445;BME280;57902;49.638;11.070;2023-05-03T08:50:30;99199.91;;;16.16;50.70
70445;BME280;57902;49.638;11.070;2023-05-03T08:52:58;99194.25;;;15.81;51.60
70445;BME280;57902;49.638;11.070;2023-05-03T08:55:24;99197.09;;;15.73;51.87
70445;BME280;57902;49.638;11.070;2023-05-03T08:57:51;99198.81;;;15.74;52.81
70445;BME280;57902;49.638;11.070;2023-05-03T09:00:17;99196.41;;;15.68;53.07
70445;BME280;57902;49.638;11.070;2023-05-03T09:02:45;99205.78;;;15.72;52.40
70445;BME280;57902;49.638;11.070;2023-05-03T09:08:04;99194.81;;;15.13;53.91
70445;BME280;57902;49.638;11.070;2023-05-03T09:10:33;99194.56;;;15.21;53.86
70445;BME280;57902;49.638;11.070;2023-05-03T09:13:02;99197.91;;;15.25;53.35
70445;BME280;57902;49.638;11.070;2023-05-03T09:15:32;99193.16;;;15.37;53.63
70445;BME280;57902;49.638;11.070;2023-05-03T09:18:09;99194.78;;;15.40;52.57
70445;BME280;57902;49.638;11.070;2023-05-03T09:20:38;99197.38;;;15.65;53.90
70445;BME280;57902;49.638;11.070;2023-05-03T09:23:06;99195.75;;;15.63;51.74
70445;BME280;57902;49.638;11.070;2023-05-03T09:25:47;99193.28;;;15.83;51.53
70445;BME280;57902;49.638;11.070;2023-05-03T09:28:15;99196.63;;;15.87;51.52
70445;BME280;57902;49.638;11.070;2023-05-03T09:30:42;99198.66;;;15.79;52.40
70445;BME280;57902;49.638;11.070;2023-05-03T09:33:09;99194.38;;;15.76;53.66
70445;BME280;57902;49.638;11.070;2023-05-03T09:35:37;99198.09;;;15.69;52.87
70445;BME280;57902;49.638;11.070;2023-05-03T09:38:04;99194.88;;;15.37;52.56
70445;BME280;57902;49.638;11.070;2023-05-03T09:40:31;99198.63;;;15.03;52.87
70445;BME280;57902;49.638;11.070;2023-05-03T09:43:08;99201.28;;;15.53;51.82
70445;BME280;57902;49.638;11.070;2023-05-03T09:45:36;99192.69;;;15.75;51.88
70445;BME280;57902;49.638;11.070;2023-05-03T09:48:04;99188.28;;;15.79;51.20
70445;BME280;57902;49.638;11.070;2023-05-03T09:50:32;99195.25;;;16.00;51.87
70445;BME280;57902;49.638;11.070;2023-05-03T09:53:03;99186.06;;;16.15;52.60
70445;BME280;57902;49.638;11.070;2023-05-03T09:55:35;99190.91;;;15.77;52.53
70445;BME280;57902;49.638;11.070;2023-05-03T09:58:02;99185.34;;;15.63;50.08
70445;BME280;57902;49.638;11.070;2023-05-03T10:00:37;99189.66;;;15.64;53.06
70445;BME280;57902;49.638;11.070;2023-05-03T10:03:11;99179.97;;;15.67;51.18
70445;BME280;57902;49.638;11.070;2023-05-03T10:05:42;99188.38;;;15.99;51.92
70445;BME280;57902;49.638;11.070;2023-05-03T10:08:26;99182.00;;;15.84;51.07
70445;BME280;57902;49.638;11.070;2023-05-03T10:10:56;99174.03;;;15.89;51.55
70445;BME280;57902;49.638;11.070;2023-05-03T10:13:23;99174.00;;;15.65;52.18
70445;BME280;57902;49.638;11.070;2023-05-03T10:15:56;99173.63;;;16.00;53.96
70445;BME280;57902;49.638;11.070;2023-05-03T10:18:25;99169.44;;;15.96;50.85
70445;BME280;57902;49.638;11.070;2023-05-03T10:21:00;99162.94;;;15.84;51.01
70445;BME280;57902;49.638;11.070;2023-05-03T10:23:27;99163.09;;;16.03;53.07
70445;BME280;57902;49.638;11.070;2023-05-03T10:28:32;99157.88;;;16.03;52.25
70445;BME280;57902;49.638;11.070;2023-05-03T10:30:59;99159.13;;;16.16;52.81
70445;BME280;57902;49.638;11.070;2023-05-03T10:33:30;99164.81;;;16.04;52.53
70445;BME280;57902;49.638;11.070;2023-05-03T10:35:57;99154.03;;;16.13;50.70
70445;BME280;57902;49.638;11.070;2023-05-03T10:38:27;99156.50;;;16.16;51.34
70445;BME280;57902;49.638;11.070;2023-05-03T10:40:55;99143.09;;;16.27;50.32
70445;BME280;57902;49.638;11.070;2023-05-03T10:46:04;99150.72;;;16.32;49.73
70445;BME280;57902;49.638;11.070;2023-05-03T10:48:32;99151.31;;;16.38;50.74
70445;BME280;57902;49.638;11.070;2023-05-03T10:51:33;99147.31;;;16.30;49.61
70445;BME280;57902;49.638;11.070;2023-05-03T10:54:02;99146.25;;;16.35;48.37
70445;BME280;57902;49.638;11.070;2023-05-03T10:56:30;99139.22;;;16.37;49.94
70445;BME280;57902;49.638;11.070;2023-05-03T10:58:56;99137.38;;;16.61;50.00
70445;BME280;57902;49.638;11.070;2023-05-03T11:01:25;99138.34;;;16.81;48.22
70445;BME280;57902;49.638;11.070;2023-05-03T11:04:17;99141.91;;;17.01;49.28
70445;BME280;57902;49.638;11.070;2023-05-03T11:06:49;99137.03;;;16.93;48.34
70445;BME280;57902;49.638;11.070;2023-05-03T11:09:17;99135.53;;;17.08;46.92
70445;BME280;57902;49.638;11.070;2023-05-03T11:11:44;99144.09;;;16.89;49.64
70445;BME280;57902;49.638;11.070;2023-05-03T11:14:11;99134.47;;;16.91;49.28
70445;BME280;57902;49.638;11.070;2023-05-03T11:16:39;99133.91;;;16.83;48.33
70445;BME280;57902;49.638;11.070;2023-05-03T11:19:13;99139.44;;;16.98;47.83
70445;BME280;57902;49.638;11.070;2023-05-03T11:21:41;99131.41;;;17.02;45.99
70445;BME280;57902;49.638;11.070;2023-05-03T11:24:08;99125.47;;;16.99;46.88
70445;BME280;57902;49.638;11.070;2023-05-03T11:26:38;99125.97;;;16.86;46.37
70445;BME280;57902;49.638;11.070;2023-05-03T11:29:04;99121.41;;;16.93;48.17
70445;BME280;57902;49.638;11.070;2023-05-03T11:31:31;99123.66;;;16.58;45.95
70445;BME280;57902;49.638;11.070;2023-05-03T11:33:58;99110.41;;;16.64;45.35
70445;BME280;57902;49.638;11.070;2023-05-03T11:36:25;99115.28;;;16.72;45.20
70445;BME280;57902;49.638;11.070;2023-05-03T11:38:53;99123.84;;;16.53;46.55
70445;BME280;57902;49.638;11.070;2023-05-03T11:41:19;99116.72;;;16.36;47.30
70445;BME280;57902;49.638;11.070;2023-05-03T11:43:48;99118.75;;;16.06;46.55
70445;BME280;57902;49.638;11.070;2023-05-03T11:46:27;99114.19;;;16.35;47.45
70445;BME280;57902;49.638;11.070;2023-05-03T11:49:08;99117.84;;;16.51;46.46
70445;BME280;57902;49.638;11.070;2023-05-03T11:51:35;99115.06;;;16.76;45.48
70445;BME280;57902;49.638;11.070;2023-05-03T11:54:02;99106.91;;;16.86;42.73
70445;BME280;57902;49.638;11.070;2023-05-03T11:56:49;99111.06;;;16.90;41.36
70445;BME280;57902;49.638;11.070;2023-05-03T11:59:18;99106.25;;;17.01;40.94
70445;BME280;57902;49.638;11.070;2023-05-03T12:01:45;99105.69;;;16.94;42.76
70445;BME280;57902;49.638;11.070;2023-05-03T12:04:15;99105.88;;;16.90;45.66
70445;BME280;57902;49.638;11.070;2023-05-03T12:06:42;99104.47;;;17.03;44.77
70445;BME280;57902;49.638;11.070;2023-05-03T12:09:17;99098.03;;;16.91;46.05
70445;BME280;57902;49.638;11.070;2023-05-03T12:11:48;99098.97;;;17.09;45.94
70445;BME280;57902;49.638;11.070;2023-05-03T12:14:17;99090.31;;;17.09;43.92
70445;BME280;57902;49.638;11.070;2023-05-03T12:16:49;99095.56;;;17.07;42.73
70445;BME280;57902;49.638;11.070;2023-05-03T12:19:31;99092.19;;;17.05;43.15
70445;BME280;57902;49.638;11.070;2023-05-03T12:22:00;99094.75;;;17.07;43.77
70445;BME280;57902;49.638;11.070;2023-05-03T12:24:47;99089.91;;;16.77;42.81
70445;BME280;57902;49.638;11.070;2023-05-03T12:27:25;99085.13;;;16.66;44.16
70445;BME280;57902;49.638;11.070;2023-05-03T12:29:53;99081.28;;;16.75;43.73
70445;BME280;57902;49.638;11.070;2023-05-03T12:32:22;99074.28;;;16.77;43.86
70445;BME280;57902;49.638;11.070;2023-05-03T12:34:49;99075.44;;;16.49;42.40
70445;BME280;57902;49.638;11.070;2023-05-03T12:37:17;99078.53;;;16.57;43.16
70445;BME280;57902;49.638;11.070;2023-05-03T12:39:47;99075.59;;;16.67;41.20
70445;BME280;57902;49.638;11.070;2023-05-03T12:42:33;99065.16;;;16.67;42.13
70445;BME280;57902;49.638;11.070;2023-05-03T12:45:00;99070.22;;;16.92;40.57
70445;BME280;57902;49.638;11.070;2023-05-03T12:47:30;99070.88;;;16.75;39.73
70445;BME280;57902;49.638;11.070;2023-05-03T12:50:02;99070.75;;;16.78;42.19
70445;BME280;57902;49.638;11.070;2023-05-03T12:52:31;99074.09;;;16.61;39.50
70445;BME280;57902;49.638;11.070;2023-05-03T12:55:05;99069.50;;;16.45;39.01
70445;BME280;57902;49.638;11.070;2023-05-03T12:57:37;99072.69;;;16.52;39.53
70445;BME280;57902;49.638;11.070;2023-05-03T13:00:05;99064.91;;;16.52;39.26
70445;BME280;57902;49.638;11.070;2023-05-03T13:02:40;99058.31;;;16.43;38.12
70445;BME280;57902;49.638;11.070;2023-05-03T13:05:26;99055.13;;;16.57;40.43
70445;BME280;57902;49.638;11.070;2023-05-03T13:08:01;99050.44;;;16.66;37.78
70445;BME280;57902;49.638;11.070;2023-05-03T13:10:37;99042.38;;;16.72;38.49
70445;BME280;57902;49.638;11.070;2023-05-03T13:13:06;99039.97;;;16.67;38.77